createdAt,value
2017-10-18T00:00:12.781Z,89.74
2017-10-18T00:02:41.123Z,89.71
2017-10-18T00:05:09.439Z,89.80
2017-10-18T00:07:37.785Z,89.82
2017-10-18T00:10:06.882Z,90.01
2017-10-18T00:12:36.016Z,90.38
2017-10-18T00:15:04.372Z,89.91
2017-10-18T00:17:32.739Z,89.51
2017-10-18T00:20:01.835Z,89.36
2017-10-18T00:22:30.965Z,89.49
2017-10-18T00:24:59.280Z,89.44
2017-10-18T00:27:27.646Z,89.50
2017-10-18T00:29:55.987Z,89.69
2017-10-18T00:32:24.330Z,89.48
2017-10-18T00:34:52.645Z,89.70
2017-10-18T00:37:20.986Z,89.51
2017-10-18T00:39:50.111Z,88.96
2017-10-18T00:42:18.447Z,89.48
2017-10-18T00:44:46.761Z,89.17
2017-10-18T00:47:15.107Z,89.93
2017-10-18T00:49:43.432Z,90.45
2017-10-18T00:52:11.755Z,90.43
2017-10-18T00:54:40.093Z,90.13
2017-10-18T00:57:08.423Z,89.97
2017-10-18T00:59:36.752Z,89.98
2017-10-18T01:02:05.096Z,90.08
2017-10-18T01:04:34.192Z,90.25
2017-10-18T01:07:03.311Z,90.33
2017-10-18T01:09:31.644Z,92.02
2017-10-18T01:11:59.981Z,92.38
2017-10-18T01:14:28.333Z,92.58
2017-10-18T01:16:56.654Z,93.29
2017-10-18T01:19:24.977Z,93.54
2017-10-18T01:21:54.075Z,93.05
2017-10-18T01:24:23.191Z,93.09
2017-10-18T01:26:51.686Z,92.98
2017-10-18T01:29:20.025Z,93.08
2017-10-18T01:31:48.492Z,92.75
2017-10-18T01:34:16.821Z,92.58
2017-10-18T01:36:45.152Z,92.45
2017-10-18T01:39:13.517Z,92.74
2017-10-18T01:41:41.867Z,93.35
2017-10-18T01:44:10.251Z,92.91
2017-10-18T01:46:38.595Z,92.43
2017-10-18T01:49:07.070Z,92.14
2017-10-18T01:51:35.417Z,92.15
2017-10-18T01:54:03.774Z,91.84
2017-10-18T01:56:32.136Z,91.97
2017-10-18T01:59:00.452Z,92.36
2017-10-18T02:01:28.858Z,92.61
2017-10-18T02:03:57.232Z,92.38
2017-10-18T02:06:26.326Z,92.30
2017-10-18T02:08:55.526Z,92.68
2017-10-18T02:11:24.622Z,93.19
2017-10-18T02:13:53.006Z,92.70
2017-10-18T02:16:21.379Z,92.73
2017-10-18T02:18:49.750Z,92.71
2017-10-18T02:21:18.855Z,93.30
2017-10-18T02:23:47.949Z,93.19
2017-10-18T02:26:17.042Z,92.72
2017-10-18T02:28:45.398Z,93.17
2017-10-18T02:31:14.509Z,94.03
2017-10-18T02:33:43.624Z,94.54
2017-10-18T02:36:11.965Z,94.58
2017-10-18T02:38:40.290Z,94.84
2017-10-18T02:41:08.656Z,94.99
2017-10-18T02:43:37.025Z,95.17
2017-10-18T02:46:06.202Z,95.11
2017-10-18T02:48:35.305Z,95.01
2017-10-18T02:51:04.435Z,95.09
2017-10-18T02:53:32.753Z,95.14
2017-10-18T02:56:01.069Z,94.97
2017-10-18T02:58:29.419Z,94.44
2017-10-18T03:00:57.762Z,94.20
2017-10-18T03:03:26.202Z,94.25
2017-10-18T03:05:55.281Z,94.54
2017-10-18T03:08:23.605Z,94.87
2017-10-18T03:10:51.936Z,94.86
2017-10-18T03:13:20.282Z,94.90
2017-10-18T03:15:48.617Z,94.61
2017-10-18T03:18:16.960Z,94.36
2017-10-18T03:20:45.296Z,94.50
2017-10-18T03:23:13.633Z,94.67
2017-10-18T03:25:42.736Z,94.89
2017-10-18T03:28:11.089Z,94.68
2017-10-18T03:30:39.426Z,94.34
2017-10-18T03:33:07.756Z,94.14
2017-10-18T03:35:36.098Z,93.98
2017-10-18T03:38:04.456Z,93.87
2017-10-18T03:40:32.762Z,93.53
2017-10-18T03:43:01.098Z,93.39
2017-10-18T03:45:29.441Z,93.32
2017-10-18T03:47:57.862Z,93.44
2017-10-18T03:50:26.185Z,93.69
2017-10-18T03:52:54.518Z,93.33
2017-10-18T03:55:22.854Z,93.25
2017-10-18T03:57:51.189Z,93.65
2017-10-18T04:00:19.513Z,94.35
2017-10-18T04:02:47.857Z,94.34
2017-10-18T04:05:16.163Z,94.17
2017-10-18T04:07:44.466Z,93.77
2017-10-18T04:10:13.568Z,94.26
2017-10-18T04:12:41.899Z,94.81
2017-10-18T04:15:10.230Z,94.84
2017-10-18T04:17:38.575Z,95.10
2017-10-18T04:20:06.897Z,95.33
2017-10-18T04:22:35.217Z,95.29
2017-10-18T04:25:03.566Z,95.04
2017-10-18T04:27:31.866Z,94.62
2017-10-18T04:30:00.198Z,94.89
2017-10-18T04:32:28.518Z,95.01
2017-10-18T04:34:56.845Z,95.16
2017-10-18T04:37:25.149Z,95.36
2017-10-18T04:39:53.463Z,95.17
2017-10-18T04:42:21.785Z,94.69
2017-10-18T04:44:50.117Z,94.31
2017-10-18T04:47:18.657Z,94.13
2017-10-18T04:49:46.977Z,94.28
2017-10-18T04:52:15.280Z,94.71
2017-10-18T04:54:44.380Z,94.94
2017-10-18T04:57:12.706Z,95.25
2017-10-18T04:59:41.097Z,95.14
2017-10-18T05:02:09.433Z,94.51
2017-10-18T05:04:37.793Z,94.24
2017-10-18T05:07:06.868Z,94.32
2017-10-18T05:09:35.191Z,94.73
2017-10-18T05:12:03.506Z,94.92
2017-10-18T05:14:31.818Z,94.64
2017-10-18T05:17:00.877Z,94.48
2017-10-18T05:19:29.192Z,94.57
2017-10-18T05:21:58.265Z,95.20
2017-10-18T05:24:26.589Z,95.04
2017-10-18T05:26:54.902Z,94.84
2017-10-18T05:29:23.229Z,94.53
2017-10-18T05:31:51.533Z,94.36
2017-10-18T05:34:19.849Z,94.52
2017-10-18T05:36:48.159Z,94.77
2017-10-18T05:39:16.453Z,94.68
2017-10-18T05:41:44.765Z,94.74
2017-10-18T05:44:13.071Z,94.64
2017-10-18T05:46:42.149Z,94.08
2017-10-18T05:49:10.457Z,94.15
2017-10-18T05:51:38.768Z,94.45
2017-10-18T05:54:07.896Z,94.00
2017-10-18T05:56:36.209Z,93.77
2017-10-18T05:59:04.509Z,93.77
2017-10-18T06:01:32.812Z,94.04
2017-10-18T06:04:01.121Z,94.27
2017-10-18T06:06:30.200Z,94.05
2017-10-18T06:08:58.503Z,93.57
2017-10-18T06:11:26.824Z,93.62
2017-10-18T06:13:55.132Z,93.67
2017-10-18T06:16:23.452Z,94.26
2017-10-18T06:18:51.749Z,94.37
2017-10-18T06:21:20.060Z,94.43
2017-10-18T06:23:48.356Z,94.36
2017-10-18T06:26:17.433Z,94.19
2017-10-18T06:28:45.735Z,94.40
2017-10-18T06:31:14.821Z,94.45
2017-10-18T06:33:43.885Z,94.31
2017-10-18T06:36:12.209Z,94.37
2017-10-18T06:38:41.273Z,94.71
2017-10-18T06:41:09.585Z,94.72
2017-10-18T06:43:37.886Z,94.45
2017-10-18T06:46:06.205Z,93.90
2017-10-18T06:48:34.509Z,93.85
2017-10-18T06:51:03.591Z,94.07
2017-10-18T06:53:32.683Z,94.48
2017-10-18T06:56:00.994Z,93.98
2017-10-18T06:58:29.309Z,94.31
2017-10-18T07:00:57.623Z,93.81
2017-10-18T07:03:26.694Z,93.64
2017-10-18T07:05:55.030Z,93.35
2017-10-18T07:08:23.328Z,93.02
2017-10-18T07:10:51.637Z,92.88
2017-10-18T07:13:19.945Z,92.93
2017-10-18T07:15:48.243Z,92.93
2017-10-18T07:18:16.594Z,92.64
2017-10-18T07:20:45.662Z,92.87
2017-10-18T07:23:13.978Z,92.54
2017-10-18T07:25:42.286Z,92.15
2017-10-18T07:28:10.602Z,91.53
2017-10-18T07:30:39.669Z,91.26
2017-10-18T07:33:07.978Z,91.20
2017-10-18T07:35:37.056Z,91.03
2017-10-18T07:38:05.373Z,90.49
2017-10-18T07:40:33.681Z,90.07
2017-10-18T07:43:02.003Z,89.73
2017-10-18T07:45:31.107Z,89.16
2017-10-18T07:48:00.204Z,89.53
2017-10-18T07:50:28.530Z,87.61
2017-10-18T07:52:56.841Z,86.97
2017-10-18T07:55:25.145Z,86.86
2017-10-18T07:57:54.221Z,86.54
2017-10-18T08:00:23.306Z,86.76
2017-10-18T08:02:51.617Z,87.53
2017-10-18T08:05:19.927Z,87.52
2017-10-18T08:07:48.236Z,87.78
2017-10-18T08:10:16.542Z,87.57
2017-10-18T08:12:45.625Z,87.42
2017-10-18T08:15:14.710Z,87.26
2017-10-18T08:17:43.026Z,85.70
2017-10-18T08:20:11.333Z,85.70
2017-10-18T08:22:39.655Z,85.78
2017-10-18T08:25:08.729Z,85.49
2017-10-18T08:27:37.044Z,85.58
2017-10-18T08:30:05.346Z,85.04
2017-10-18T08:32:33.658Z,83.55
2017-10-18T08:35:01.961Z,83.04
2017-10-18T08:37:31.033Z,82.95
2017-10-18T08:39:59.344Z,83.24
2017-10-18T08:42:27.661Z,83.63
2017-10-18T08:44:55.961Z,84.19
2017-10-18T08:47:24.281Z,85.41
2017-10-18T08:49:52.593Z,84.89
2017-10-18T08:52:20.930Z,85.22
2017-10-18T08:54:49.233Z,83.65
2017-10-18T08:57:17.633Z,84.87
2017-10-18T08:59:45.935Z,86.13
2017-10-18T09:02:14.250Z,86.34
2017-10-18T09:04:42.571Z,85.82
2017-10-18T09:07:10.893Z,85.84
2017-10-18T09:09:39.194Z,83.62
2017-10-18T09:12:07.512Z,82.24
2017-10-18T09:14:35.813Z,81.48
2017-10-18T09:17:04.944Z,81.25
2017-10-18T09:19:33.251Z,81.29
2017-10-18T09:22:16.445Z,82.04
2017-10-18T09:24:44.744Z,80.47
2017-10-18T09:27:13.051Z,81.03
2017-10-18T09:29:41.361Z,80.95
2017-10-18T09:32:09.665Z,81.17
2017-10-18T09:34:37.976Z,80.01
2017-10-18T09:37:06.282Z,81.59
2017-10-18T09:39:35.381Z,82.09
2017-10-18T09:42:04.445Z,83.30
2017-10-18T09:44:32.754Z,82.92
2017-10-18T09:47:01.832Z,83.14
2017-10-18T09:49:30.910Z,81.91
2017-10-18T09:51:59.216Z,80.81
2017-10-18T09:54:27.546Z,80.91
2017-10-18T09:56:56.618Z,81.17
2017-10-18T09:59:24.936Z,81.66
2017-10-18T10:01:53.238Z,81.05
2017-10-18T10:04:22.329Z,82.01
2017-10-18T10:06:51.400Z,81.37
2017-10-18T10:09:19.721Z,80.96
2017-10-18T10:11:48.029Z,80.36
2017-10-18T10:14:16.345Z,81.33
2017-10-18T10:16:44.646Z,79.20
2017-10-18T10:19:13.726Z,81.07
2017-10-18T10:21:42.806Z,81.88
2017-10-18T10:24:11.137Z,83.17
2017-10-18T10:26:39.457Z,82.41
2017-10-18T10:29:07.774Z,80.46
2017-10-18T10:31:36.077Z,81.84
2017-10-18T10:34:04.401Z,82.03
2017-10-18T10:36:32.709Z,83.41
2017-10-18T10:39:01.022Z,82.26
2017-10-18T10:41:29.321Z,81.37
2017-10-18T10:43:57.629Z,81.14
2017-10-18T10:46:25.938Z,80.12
2017-10-18T10:48:54.254Z,81.16
2017-10-18T10:51:22.557Z,82.62
2017-10-18T10:53:50.964Z,83.53
2017-10-18T10:56:19.266Z,82.89
2017-10-18T10:58:47.578Z,81.66
2017-10-18T11:01:15.885Z,80.05
2017-10-18T11:03:44.209Z,80.56
2017-10-18T11:06:12.521Z,79.67
2017-10-18T11:08:41.605Z,77.33
2017-10-18T11:11:10.682Z,76.27
2017-10-18T11:13:39.002Z,74.89
2017-10-18T11:16:07.302Z,74.55
2017-10-18T11:18:35.619Z,75.00
2017-10-18T11:21:03.921Z,76.19
2017-10-18T11:23:33.001Z,76.38
2017-10-18T11:26:01.302Z,75.20
2017-10-18T11:28:29.625Z,74.23
2017-10-18T11:30:57.929Z,74.86
2017-10-18T11:33:26.238Z,74.07
2017-10-18T11:35:54.540Z,75.20
2017-10-18T11:38:22.849Z,74.78
2017-10-18T11:40:51.149Z,73.92
2017-10-18T11:43:20.232Z,72.80
2017-10-18T11:45:48.532Z,72.19
2017-10-18T11:48:17.596Z,73.30
2017-10-18T11:50:45.910Z,73.98
2017-10-18T11:53:14.214Z,74.03
2017-10-18T11:55:42.522Z,72.49
2017-10-18T11:58:10.844Z,71.50
2017-10-18T12:00:39.161Z,71.57
2017-10-18T12:03:07.470Z,72.17
2017-10-18T12:05:35.798Z,72.50
2017-10-18T12:08:04.105Z,73.32
2017-10-18T12:10:32.429Z,74.99
2017-10-18T12:13:00.733Z,74.96
2017-10-18T12:15:29.049Z,76.17
2017-10-18T12:17:57.378Z,76.31
2017-10-18T12:20:25.689Z,76.22
2017-10-18T12:22:53.997Z,74.60
2017-10-18T12:25:23.087Z,74.58
2017-10-18T12:27:51.394Z,75.20
2017-10-18T12:30:19.744Z,75.24
2017-10-18T12:32:48.812Z,75.31
2017-10-18T12:35:17.125Z,76.02
2017-10-18T12:37:46.192Z,76.69
2017-10-18T12:40:14.513Z,77.82
2017-10-18T12:42:42.816Z,77.56
2017-10-18T12:45:11.163Z,76.96
2017-10-18T12:47:39.481Z,77.74
2017-10-18T12:50:07.797Z,77.77
2017-10-18T12:52:36.874Z,77.26
2017-10-18T12:55:05.217Z,77.97
2017-10-18T12:57:33.525Z,78.37
2017-10-18T13:00:01.839Z,77.55
2017-10-18T13:02:30.157Z,77.67
2017-10-18T13:04:58.470Z,77.29
2017-10-18T13:07:27.550Z,76.50
2017-10-18T13:09:55.867Z,76.08
2017-10-18T13:12:24.946Z,75.87
2017-10-18T13:14:54.033Z,75.90
2017-10-18T13:17:22.349Z,75.43
2017-10-18T13:19:50.665Z,74.85
2017-10-18T13:22:18.965Z,75.66
2017-10-18T13:24:47.286Z,75.83
2017-10-18T13:27:15.590Z,75.31
2017-10-18T13:29:43.932Z,75.19
2017-10-18T13:32:12.233Z,74.91
2017-10-18T13:34:40.545Z,75.39
2017-10-18T13:37:08.861Z,74.22
2017-10-18T13:39:37.173Z,73.71
2017-10-18T13:42:05.477Z,73.58
2017-10-18T13:44:33.785Z,73.63
2017-10-18T13:47:02.854Z,74.83
2017-10-18T13:49:31.179Z,75.09
2017-10-18T13:51:59.477Z,74.80
2017-10-18T13:54:27.835Z,75.41
2017-10-18T13:56:56.141Z,74.80
2017-10-18T13:59:24.449Z,74.93
2017-10-18T14:01:52.761Z,74.65
2017-10-18T14:04:21.146Z,74.47
2017-10-18T14:06:49.445Z,74.05
2017-10-18T14:09:17.745Z,73.81
2017-10-18T14:11:46.068Z,73.39
2017-10-18T14:14:14.373Z,73.03
2017-10-18T14:16:42.685Z,72.38
2017-10-18T14:19:10.994Z,72.24
2017-10-18T14:21:39.304Z,72.64
2017-10-18T14:24:07.610Z,73.48
2017-10-18T14:26:35.926Z,73.11
2017-10-18T14:29:04.226Z,73.51
2017-10-18T14:31:32.536Z,73.56
2017-10-18T14:34:00.848Z,73.31
2017-10-18T14:36:29.929Z,73.86
2017-10-18T14:38:58.997Z,74.55
2017-10-18T14:41:27.322Z,74.74
2017-10-18T14:43:55.629Z,75.49
2017-10-18T14:46:23.954Z,75.83
2017-10-18T14:48:53.026Z,76.38
2017-10-18T14:51:21.353Z,76.72
2017-10-18T14:53:49.661Z,76.94
2017-10-18T14:56:18.738Z,76.68
2017-10-18T14:58:47.036Z,76.95
2017-10-18T15:01:15.344Z,77.19
2017-10-18T15:03:43.651Z,77.36
2017-10-18T15:06:11.962Z,78.14
2017-10-18T15:08:40.274Z,78.40
2017-10-18T15:11:08.601Z,78.39
2017-10-18T15:13:36.904Z,78.45
2017-10-18T15:16:05.224Z,78.74
2017-10-18T15:18:34.297Z,79.23
2017-10-18T15:21:02.642Z,79.56
2017-10-18T15:23:30.953Z,79.66
2017-10-18T15:25:59.271Z,79.86
2017-10-18T15:28:27.577Z,79.94
2017-10-18T15:30:55.885Z,80.31
2017-10-18T15:33:24.193Z,80.77
2017-10-18T15:35:52.526Z,81.18
2017-10-18T15:38:20.839Z,81.69
2017-10-18T15:40:49.926Z,82.13
2017-10-18T15:43:18.993Z,82.58
2017-10-18T15:45:48.163Z,83.16
2017-10-18T15:48:17.656Z,83.45
2017-10-18T15:50:45.960Z,83.85
2017-10-18T15:53:14.262Z,84.40
2017-10-18T15:55:42.586Z,85.13
2017-10-18T15:58:10.887Z,85.01
2017-10-18T16:00:39.205Z,85.91
2017-10-18T16:03:07.525Z,85.93
2017-10-18T16:05:35.841Z,86.34
2017-10-18T16:08:04.156Z,85.42
2017-10-18T16:10:32.477Z,85.52
2017-10-18T16:13:00.780Z,85.38
2017-10-18T16:15:29.098Z,86.19
2017-10-18T16:17:57.397Z,86.56
2017-10-18T16:20:25.709Z,86.93
2017-10-18T16:22:54.015Z,87.60
2017-10-18T16:25:23.124Z,87.88
2017-10-18T16:27:51.422Z,88.47
2017-10-18T16:30:19.725Z,88.79
2017-10-18T16:32:48.045Z,88.37
2017-10-18T16:35:16.357Z,87.52
2017-10-18T16:37:44.677Z,86.97
2017-10-18T16:40:12.985Z,86.83
2017-10-18T16:42:41.305Z,87.10
2017-10-18T16:45:09.622Z,87.37
2017-10-18T16:47:38.701Z,87.61
2017-10-18T16:50:07.009Z,87.98
2017-10-18T16:52:35.333Z,87.83
2017-10-18T16:55:03.647Z,87.55
2017-10-18T16:57:32.726Z,87.43
2017-10-18T17:00:01.950Z,87.15
2017-10-18T17:02:31.035Z,87.25
2017-10-18T17:05:00.117Z,87.31
2017-10-18T17:07:28.429Z,86.76
2017-10-18T17:09:56.737Z,86.21
2017-10-18T17:12:25.045Z,86.24
2017-10-18T17:14:53.353Z,86.30
2017-10-18T17:17:21.689Z,86.13
2017-10-18T17:19:49.996Z,86.20
2017-10-18T17:22:19.089Z,86.42
2017-10-18T17:24:48.161Z,86.55
2017-10-18T17:27:16.481Z,86.91
2017-10-18T17:29:44.786Z,87.09
2017-10-18T17:32:13.115Z,87.53
2017-10-18T17:34:42.213Z,87.72
2017-10-18T17:37:11.303Z,87.70
2017-10-18T17:39:40.376Z,87.92
2017-10-18T17:42:08.715Z,88.12
2017-10-18T17:44:37.017Z,87.94
2017-10-18T17:47:05.332Z,87.86
2017-10-18T17:49:34.421Z,87.67
2017-10-18T17:52:02.744Z,87.70
2017-10-18T17:54:31.057Z,87.64
2017-10-18T17:56:59.393Z,87.64
2017-10-18T17:59:27.753Z,87.89
2017-10-18T18:01:56.830Z,87.92
2017-10-18T18:04:25.138Z,88.06
2017-10-18T18:06:53.469Z,88.53
2017-10-18T18:09:21.796Z,89.62
2017-10-18T18:11:50.134Z,89.65
2017-10-18T18:14:18.446Z,88.74
2017-10-18T18:16:46.749Z,88.19
2017-10-18T18:19:15.069Z,88.15
2017-10-18T18:21:44.164Z,90.13
2017-10-18T18:24:12.474Z,90.55
2017-10-18T18:26:40.782Z,91.44
2017-10-18T18:29:09.097Z,91.83
2017-10-18T18:31:37.513Z,92.35
2017-10-18T18:34:05.829Z,92.48
2017-10-18T18:36:34.746Z,92.29
2017-10-18T18:39:03.071Z,92.28
2017-10-18T18:41:31.388Z,91.77
2017-10-18T18:43:59.707Z,92.22
2017-10-18T18:46:28.010Z,92.23
2017-10-18T18:48:56.326Z,92.07
2017-10-18T18:51:24.637Z,92.34
2017-10-18T18:53:53.129Z,92.35
2017-10-18T18:56:21.457Z,92.22
2017-10-18T18:58:49.766Z,92.00
2017-10-18T19:01:18.834Z,91.68
2017-10-18T19:03:47.145Z,91.33
2017-10-18T19:06:15.456Z,91.23
2017-10-18T19:08:43.773Z,91.26
2017-10-18T19:11:12.077Z,90.87
2017-10-18T19:13:40.397Z,90.96
2017-10-18T19:16:08.707Z,90.55
2017-10-18T19:18:37.792Z,90.86
2017-10-18T19:21:06.097Z,91.46
2017-10-18T19:23:35.179Z,92.48
2017-10-18T19:26:04.258Z,92.87
2017-10-18T19:28:32.588Z,93.09
2017-10-18T19:31:00.911Z,92.93
2017-10-18T19:33:29.217Z,93.31
2017-10-18T19:35:58.336Z,92.24
2017-10-18T19:38:26.637Z,91.64
2017-10-18T19:40:54.960Z,91.21
2017-10-18T19:43:24.029Z,90.95
2017-10-18T19:45:52.344Z,90.35
2017-10-18T19:48:21.408Z,89.93
2017-10-18T19:50:49.717Z,89.76
2017-10-18T19:53:18.022Z,89.85
2017-10-18T19:55:46.333Z,89.84
2017-10-18T19:58:14.642Z,89.85
2017-10-18T20:00:43.725Z,90.07
2017-10-18T20:03:12.861Z,89.75
2017-10-18T20:05:41.179Z,89.74
2017-10-18T20:08:09.496Z,89.76
2017-10-18T20:10:37.812Z,89.76
2017-10-18T20:13:06.129Z,89.84
2017-10-18T20:15:34.445Z,89.81
2017-10-18T20:18:02.768Z,90.09
2017-10-18T20:20:31.099Z,90.78
2017-10-18T20:22:59.409Z,90.89
2017-10-18T20:25:27.738Z,91.13
2017-10-18T20:27:56.046Z,91.40
2017-10-18T20:30:24.358Z,92.83
2017-10-18T20:32:52.663Z,91.64
2017-10-18T20:35:21.769Z,91.02
2017-10-18T20:37:50.077Z,90.75
2017-10-18T20:40:18.386Z,90.95
2017-10-18T20:42:46.700Z,91.57
2017-10-18T20:45:15.011Z,92.04
2017-10-18T20:47:43.360Z,91.55
2017-10-18T20:50:11.657Z,91.51
2017-10-18T20:52:39.966Z,92.08
2017-10-18T20:55:08.264Z,92.49
2017-10-18T20:57:37.341Z,93.05
2017-10-18T21:00:05.649Z,93.71
2017-10-18T21:02:34.729Z,93.96
2017-10-18T21:05:03.830Z,93.74
2017-10-18T21:07:32.909Z,93.43
2017-10-18T21:10:01.210Z,92.71
2017-10-18T21:12:30.289Z,92.50
2017-10-18T21:14:58.593Z,92.27
2017-10-18T21:17:26.910Z,91.74
2017-10-18T21:19:55.210Z,91.33
2017-10-18T21:22:23.528Z,91.41
2017-10-18T21:24:51.823Z,91.18
2017-10-18T21:27:20.846Z,91.17
2017-10-18T21:29:49.145Z,90.96
2017-10-18T21:32:17.453Z,91.63
2017-10-18T21:34:45.761Z,91.47
2017-10-18T21:37:14.081Z,90.93
2017-10-18T21:39:43.152Z,90.93
2017-10-18T21:42:11.466Z,90.95
2017-10-18T21:44:39.774Z,90.70
2017-10-18T21:47:08.090Z,90.32
2017-10-18T21:49:36.401Z,90.02
2017-10-18T21:52:05.481Z,90.23
2017-10-18T21:54:34.556Z,89.96
2017-10-18T21:57:02.856Z,89.84
2017-10-18T21:59:31.929Z,89.74
2017-10-18T22:02:00.230Z,90.22
2017-10-18T22:04:29.309Z,89.83
2017-10-18T22:06:57.622Z,90.80
2017-10-18T22:09:25.940Z,89.86
2017-10-18T22:11:54.238Z,89.50
2017-10-18T22:14:22.545Z,89.59
2017-10-18T22:16:50.853Z,89.58
2017-10-18T22:19:19.165Z,90.18
2017-10-18T22:21:47.472Z,90.18
2017-10-18T22:24:16.551Z,91.36
2017-10-18T22:26:44.861Z,91.12
2017-10-18T22:29:13.170Z,90.98
2017-10-18T22:31:41.473Z,90.96
2017-10-18T22:34:09.794Z,91.42
2017-10-18T22:36:38.091Z,91.74
2017-10-18T22:39:06.397Z,91.70
2017-10-18T22:41:34.707Z,91.77
2017-10-18T22:44:03.781Z,91.73
2017-10-18T22:46:32.857Z,91.47
2017-10-18T22:49:01.169Z,90.88
2017-10-18T22:51:30.238Z,90.33
2017-10-18T22:53:58.545Z,90.11
2017-10-18T22:56:27.605Z,90.29
2017-10-18T22:58:55.922Z,90.48
2017-10-18T23:01:24.994Z,90.79
2017-10-18T23:03:53.320Z,91.31
2017-10-18T23:06:21.635Z,92.02
2017-10-18T23:08:49.971Z,92.60
2017-10-18T23:11:18.290Z,93.20
2017-10-18T23:13:46.624Z,93.12
2017-10-18T23:16:14.929Z,92.79
2017-10-18T23:18:43.250Z,92.51
2017-10-18T23:21:12.378Z,92.64
2017-10-18T23:23:40.689Z,93.13
2017-10-18T23:26:08.989Z,93.38
2017-10-18T23:28:38.089Z,93.57
2017-10-18T23:31:07.223Z,93.22
2017-10-18T23:33:35.537Z,93.52
2017-10-18T23:36:03.847Z,93.48
2017-10-18T23:38:32.933Z,93.74
2017-10-18T23:41:02.014Z,94.12
2017-10-18T23:43:30.346Z,94.01
2017-10-18T23:45:58.649Z,94.14
2017-10-18T23:48:26.961Z,94.54
2017-10-18T23:50:56.058Z,94.70
2017-10-18T23:53:25.157Z,94.90
2017-10-18T23:55:54.228Z,95.10
2017-10-18T23:58:22.537Z,95.14
